sensor_id;sensor_type;location;lat;lon;timestamp;pressure;altitude;pressure_sealevel;temperature;humidity
71638;BME280;59485;43.542;-5.676;2023-07-31T00:00:11;102021.91;;;19.32;nan
71638;BME280;59485;43.542;-5.676;2023-07-31T00:02:37;102026.38;;;19.27;nan
71638;BME280;59485;43.542;-5.676;2023-07-31T00:05:03;102020.00;;;19.20;nan
71638;BME280;59485;43.542;-5.676;2023-07-31T00:07:29;102037.72;;;19.19;nan
71638;BME280;59485;43.542;-5.676;2023-07-31T00:09:54;102023.41;;;19.15;nan
71638;BME280;59485;43.542;-5.676;2023-07-31T00:12:22;102021.72;;;19.07;nan
71638;BME280;59485;43.542;-5.676;2023-07-31T00:14:47;102018.06;;;19.07;nan
71638;BME280;59485;43.542;-5.676;2023-07-31T00:17:13;102014.03;;;19.03;nan
71638;BME280;59485;43.542;-5.676;2023-07-31T00:19:38;102023.00;;;18.98;nan
71638;BME280;59485;43.542;-5.676;2023-07-31T00:22:04;102017.66;;;18.97;nan
71638;BME280;59485;43.542;-5.676;2023-07-31T00:24:30;102020.69;;;18.95;nan
71638;BME280;59485;43.542;-5.676;2023-07-31T00:26:55;102014.88;;;18.90;nan
71638;BME280;59485;43.542;-5.676;2023-07-31T00:29:21;102019.81;;;18.88;nan
71638;BME280;59485;43.542;-5.676;2023-07-31T00:31:46;102010.63;;;18.88;nan
71638;BME280;59485;43.542;-5.676;2023-07-31T00:34:12;102010.63;;;18.81;nan
71638;BME280;59485;43.542;-5.676;2023-07-31T00:36:37;102007.19;;;18.79;nan
71638;BME280;59485;43.542;-5.676;2023-07-31T00:39:03;101997.59;;;18.68;nan
71638;BME280;59485;43.542;-5.676;2023-07-31T00:41:30;102005.94;;;18.68;nan
71638;BME280;59485;43.542;-5.676;2023-07-31T00:43:55;102004.22;;;18.67;nan
71638;BME280;59485;43.542;-5.676;2023-07-31T00:46:21;102002.31;;;18.68;nan
71638;BME280;59485;43.542;-5.676;2023-07-31T00:48:46;102000.16;;;18.70;nan
71638;BME280;59485;43.542;-5.676;2023-07-31T00:51:12;102000.16;;;18.70;nan
71638;BME280;59485;43.542;-5.676;2023-07-31T00:53:40;101988.41;;;18.68;nan
71638;BME280;59485;43.542;-5.676;2023-07-31T00:56:08;101975.38;;;18.68;nan
71638;BME280;59485;43.542;-5.676;2023-07-31T00:58:35;101979.84;;;18.63;nan
71638;BME280;59485;43.542;-5.676;2023-07-31T01:01:01;101980.31;;;18.60;nan
71638;BME280;59485;43.542;-5.676;2023-07-31T01:03:26;101976.88;;;18.58;nan
71638;BME280;59485;43.542;-5.676;2023-07-31T01:11:56;101978.13;;;18.49;nan
71638;BME280;59485;43.542;-5.676;2023-07-31T01:14:22;101977.72;;;18.52;nan
71638;BME280;59485;43.542;-5.676;2023-07-31T01:16:47;101975.34;;;18.49;nan
71638;BME280;59485;43.542;-5.676;2023-07-31T01:19:15;101962.13;;;18.51;nan
71638;BME280;59485;43.542;-5.676;2023-07-31T01:27:17;101956.13;;;18.34;nan
71638;BME280;59485;43.542;-5.676;2023-07-31T01:32:22;101969.13;;;18.27;nan
71638;BME280;59485;43.542;-5.676;2023-07-31T01:34:48;101974.47;;;18.28;nan
71638;BME280;59485;43.542;-5.676;2023-07-31T01:37:14;101969.56;;;18.30;nan
71638;BME280;59485;43.542;-5.676;2023-07-31T01:39:39;101970.84;;;18.34;nan
71638;BME280;59485;43.542;-5.676;2023-07-31T01:42:05;101968.72;;;18.36;nan
71638;BME280;59485;43.542;-5.676;2023-07-31T01:44:31;101973.41;;;18.36;nan
71638;BME280;59485;43.542;-5.676;2023-07-31T01:46:57;101968.31;;;18.33;nan
71638;BME280;59485;43.542;-5.676;2023-07-31T01:49:25;101971.69;;;18.35;nan
71638;BME280;59485;43.542;-5.676;2023-07-31T01:51:50;101966.38;;;18.33;nan
71638;BME280;59485;43.542;-5.676;2023-07-31T01:54:16;101966.38;;;18.33;nan
71638;BME280;59485;43.542;-5.676;2023-07-31T01:56:42;101965.53;;;18.33;nan
71638;BME280;59485;43.542;-5.676;2023-07-31T01:59:07;101973.19;;;18.31;nan
71638;BME280;59485;43.542;-5.676;2023-07-31T02:01:33;101955.91;;;18.22;nan
71638;BME280;59485;43.542;-5.676;2023-07-31T02:03:58;101963.56;;;18.20;nan
71638;BME280;59485;43.542;-5.676;2023-07-31T02:06:24;101959.75;;;18.15;nan
71638;BME280;59485;43.542;-5.676;2023-07-31T02:08:49;101963.78;;;18.12;nan
71638;BME280;59485;43.542;-5.676;2023-07-31T02:11:15;101954.59;;;18.05;nan
71638;BME280;59485;43.542;-5.676;2023-07-31T02:13:40;101956.72;;;17.96;nan
71638;BME280;59485;43.542;-5.676;2023-07-31T02:16:06;101964.19;;;17.96;nan
71638;BME280;59485;43.542;-5.676;2023-07-31T02:18:31;101959.03;;;17.93;nan
71638;BME280;59485;43.542;-5.676;2023-07-31T02:20:57;101955.84;;;17.89;nan
71638;BME280;59485;43.542;-5.676;2023-07-31T02:23:22;101953.50;;;17.86;nan
71638;BME280;59485;43.542;-5.676;2023-07-31T02:25:48;101957.31;;;17.85;nan
71638;BME280;59485;43.542;-5.676;2023-07-31T02:28:13;101948.34;;;17.83;nan
71638;BME280;59485;43.542;-5.676;2023-07-31T02:30:39;101960.50;;;17.82;nan
71638;BME280;59485;43.542;-5.676;2023-07-31T02:33:05;101959.66;;;17.82;nan
71638;BME280;59485;43.542;-5.676;2023-07-31T02:35:31;101967.34;;;17.80;nan
71638;BME280;59485;43.542;-5.676;2023-07-31T02:37:56;101968.63;;;17.84;nan
71638;BME280;59485;43.542;-5.676;2023-07-31T02:40:22;101970.75;;;17.82;nan
71638;BME280;59485;43.542;-5.676;2023-07-31T02:42:47;101964.78;;;17.78;nan
71638;BME280;59485;43.542;-5.676;2023-07-31T02:45:13;101962.41;;;17.82;nan
71638;BME280;59485;43.542;-5.676;2023-07-31T02:47:38;101959.03;;;17.80;nan
71638;BME280;59485;43.542;-5.676;2023-07-31T02:50:04;101951.78;;;17.79;nan
71638;BME280;59485;43.542;-5.676;2023-07-31T02:52:30;101950.25;;;17.83;nan
71638;BME280;59485;43.542;-5.676;2023-07-31T02:54:57;101948.53;;;17.75;nan
71638;BME280;59485;43.542;-5.676;2023-07-31T02:57:22;101941.72;;;17.71;nan
71638;BME280;59485;43.542;-5.676;2023-07-31T02:59:48;101945.75;;;17.62;nan
71638;BME280;59485;43.542;-5.676;2023-07-31T03:02:13;101947.63;;;17.61;nan
71638;BME280;59485;43.542;-5.676;2023-07-31T03:04:39;101950.81;;;17.58;nan
71638;BME280;59485;43.542;-5.676;2023-07-31T03:07:05;101957.41;;;17.57;nan
71638;BME280;59485;43.542;-5.676;2023-07-31T03:09:30;101951.00;;;17.50;nan
71638;BME280;59485;43.542;-5.676;2023-07-31T03:11:59;101963.16;;;17.56;nan
71638;BME280;59485;43.542;-5.676;2023-07-31T03:14:24;101958.66;;;17.48;nan
71638;BME280;59485;43.542;-5.676;2023-07-31T03:16:52;101958.19;;;17.45;nan
71638;BME280;59485;43.542;-5.676;2023-07-31T03:19:20;101955.03;;;17.48;nan
71638;BME280;59485;43.542;-5.676;2023-07-31T03:21:46;101955.66;;;17.43;nan
71638;BME280;59485;43.542;-5.676;2023-07-31T03:24:11;101950.13;;;17.43;nan
71638;BME280;59485;43.542;-5.676;2023-07-31T03:26:40;101956.28;;;17.45;nan
71638;BME280;59485;43.542;-5.676;2023-07-31T03:29:07;101939.66;;;17.45;nan
71638;BME280;59485;43.542;-5.676;2023-07-31T03:31:32;101947.97;;;17.45;nan
71638;BME280;59485;43.542;-5.676;2023-07-31T03:33:58;101949.22;;;17.36;nan
71638;BME280;59485;43.542;-5.676;2023-07-31T03:36:23;101940.28;;;17.34;nan
71638;BME280;59485;43.542;-5.676;2023-07-31T03:38:50;101942.78;;;17.29;nan
71638;BME280;59485;43.542;-5.676;2023-07-31T03:41:16;101944.69;;;17.29;nan
71638;BME280;59485;43.542;-5.676;2023-07-31T03:43:41;101940.00;;;17.22;nan
71638;BME280;59485;43.542;-5.676;2023-07-31T03:46:07;101941.69;;;17.17;nan
71638;BME280;59485;43.542;-5.676;2023-07-31T03:48:32;101944.03;;;17.20;nan
71638;BME280;59485;43.542;-5.676;2023-07-31T03:50:58;101946.78;;;17.20;nan
71638;BME280;59485;43.542;-5.676;2023-07-31T03:53:23;101944.44;;;17.17;nan
71638;BME280;59485;43.542;-5.676;2023-07-31T03:55:49;101951.53;;;17.26;nan
71638;BME280;59485;43.542;-5.676;2023-07-31T03:58:14;101938.75;;;17.32;nan
71638;BME280;59485;43.542;-5.676;2023-07-31T04:00:40;101939.63;;;17.32;nan
71638;BME280;59485;43.542;-5.676;2023-07-31T04:03:08;101940.69;;;17.38;nan
71638;BME280;59485;43.542;-5.676;2023-07-31T04:05:38;101937.69;;;17.33;nan
71638;BME280;59485;43.542;-5.676;2023-07-31T04:08:03;101945.19;;;17.39;nan
71638;BME280;59485;43.542;-5.676;2023-07-31T04:10:29;101933.66;;;17.35;nan
71638;BME280;59485;43.542;-5.676;2023-07-31T04:12:56;101941.06;;;17.28;nan
71638;BME280;59485;43.542;-5.676;2023-07-31T04:15:21;101942.78;;;17.29;nan
71638;BME280;59485;43.542;-5.676;2023-07-31T04:17:47;101946.00;;;17.33;nan
71638;BME280;59485;43.542;-5.676;2023-07-31T04:20:12;101944.94;;;17.34;nan
71638;BME280;59485;43.542;-5.676;2023-07-31T04:22:38;101951.34;;;17.34;nan
71638;BME280;59485;43.542;-5.676;2023-07-31T04:25:04;101952.38;;;17.27;nan
71638;BME280;59485;43.542;-5.676;2023-07-31T04:27:29;101946.63;;;17.28;nan
71638;BME280;59485;43.542;-5.676;2023-07-31T04:29:55;101951.09;;;17.29;nan
71638;BME280;59485;43.542;-5.676;2023-07-31T04:32:20;101949.63;;;17.27;nan
71638;BME280;59485;43.542;-5.676;2023-07-31T04:34:46;101947.03;;;17.25;nan
71638;BME280;59485;43.542;-5.676;2023-07-31T04:37:11;101955.16;;;17.27;nan
71638;BME280;59485;43.542;-5.676;2023-07-31T04:39:37;101949.34;;;17.21;nan
71638;BME280;59485;43.542;-5.676;2023-07-31T04:42:03;101951.28;;;17.21;nan
71638;BME280;59485;43.542;-5.676;2023-07-31T04:44:28;101950.44;;;17.27;nan
71638;BME280;59485;43.542;-5.676;2023-07-31T04:46:54;101949.66;;;17.33;nan
71638;BME280;59485;43.542;-5.676;2023-07-31T04:49:19;101946.00;;;17.33;nan
71638;BME280;59485;43.542;-5.676;2023-07-31T04:51:45;101935.97;;;17.32;nan
71638;BME280;59485;43.542;-5.676;2023-07-31T04:54:10;101944.91;;;17.27;nan
71638;BME280;59485;43.542;-5.676;2023-07-31T04:56:38;101945.75;;;17.27;nan
71638;BME280;59485;43.542;-5.676;2023-07-31T04:59:03;101942.75;;;17.16;nan
71638;BME280;59485;43.542;-5.676;2023-07-31T05:01:29;101945.25;;;17.11;nan
71638;BME280;59485;43.542;-5.676;2023-07-31T05:03:54;101945.06;;;17.12;nan
71638;BME280;59485;43.542;-5.676;2023-07-31T05:06:20;101951.41;;;17.06;nan
71638;BME280;59485;43.542;-5.676;2023-07-31T05:08:45;101949.53;;;17.13;nan
71638;BME280;59485;43.542;-5.676;2023-07-31T05:11:11;101944.00;;;17.13;nan
71638;BME280;59485;43.542;-5.676;2023-07-31T05:13:37;101947.84;;;17.19;nan
71638;BME280;59485;43.542;-5.676;2023-07-31T05:16:03;101943.16;;;17.19;nan
71638;BME280;59485;43.542;-5.676;2023-07-31T05:18:29;101948.09;;;17.24;nan
71638;BME280;59485;43.542;-5.676;2023-07-31T05:20:55;101952.59;;;17.25;nan
71638;BME280;59485;43.542;-5.676;2023-07-31T05:23:20;101946.84;;;17.27;nan
71638;BME280;59485;43.542;-5.676;2023-07-31T05:25:49;101936.81;;;17.25;nan
71638;BME280;59485;43.542;-5.676;2023-07-31T05:28:15;101928.94;;;17.29;nan
71638;BME280;59485;43.542;-5.676;2023-07-31T05:30:40;101935.31;;;17.30;nan
71638;BME280;59485;43.542;-5.676;2023-07-31T05:33:06;101928.28;;;17.27;nan
71638;BME280;59485;43.542;-5.676;2023-07-31T05:35:31;101922.31;;;17.23;nan
71638;BME280;59485;43.542;-5.676;2023-07-31T05:37:57;101937.91;;;17.31;nan
71638;BME280;59485;43.542;-5.676;2023-07-31T05:40:22;101936.44;;;17.35;nan
71638;BME280;59485;43.542;-5.676;2023-07-31T05:42:48;101936.25;;;17.43;nan
71638;BME280;59485;43.542;-5.676;2023-07-31T05:45:13;101942.88;;;17.49;nan
71638;BME280;59485;43.542;-5.676;2023-07-31T05:47:39;101942.47;;;17.52;nan
71638;BME280;59485;43.542;-5.676;2023-07-31T05:50:05;101948.44;;;17.55;nan
71638;BME280;59485;43.542;-5.676;2023-07-31T05:52:31;101947.44;;;17.63;nan
71638;BME280;59485;43.542;-5.676;2023-07-31T05:54:56;101957.00;;;17.60;nan
71638;BME280;59485;43.542;-5.676;2023-07-31T05:57:22;101963.91;;;17.71;nan
71638;BME280;59485;43.542;-5.676;2023-07-31T05:59:48;101960.91;;;17.73;nan
71638;BME280;59485;43.542;-5.676;2023-07-31T06:02:13;101955.81;;;17.76;nan
71638;BME280;59485;43.542;-5.676;2023-07-31T06:04:39;101966.06;;;17.82;nan
71638;BME280;59485;43.542;-5.676;2023-07-31T06:07:04;101966.25;;;17.81;nan
71638;BME280;59485;43.542;-5.676;2023-07-31T06:09:30;101964.31;;;17.75;nan
71638;BME280;59485;43.542;-5.676;2023-07-31T06:11:56;101960.50;;;17.76;nan
71638;BME280;59485;43.542;-5.676;2023-07-31T06:14:25;101963.06;;;17.77;nan
71638;BME280;59485;43.542;-5.676;2023-07-31T06:16:50;101964.78;;;17.85;nan
71638;BME280;59485;43.542;-5.676;2023-07-31T06:19:16;101980.00;;;17.54;nan
71638;BME280;59485;43.542;-5.676;2023-07-31T06:21:42;101977.84;;;17.43;nan
71638;BME280;59485;43.542;-5.676;2023-07-31T06:24:09;101987.81;;;17.38;nan
71638;BME280;59485;43.542;-5.676;2023-07-31T06:26:34;101993.81;;;17.41;nan
71638;BME280;59485;43.542;-5.676;2023-07-31T06:29:00;101999.94;;;17.30;nan
71638;BME280;59485;43.542;-5.676;2023-07-31T06:31:25;102008.03;;;17.25;nan
71638;BME280;59485;43.542;-5.676;2023-07-31T06:33:51;101996.84;;;17.12;nan
71638;BME280;59485;43.542;-5.676;2023-07-31T06:36:17;102001.72;;;17.10;nan
71638;BME280;59485;43.542;-5.676;2023-07-31T06:38:43;101994.50;;;17.09;nan
71638;BME280;59485;43.542;-5.676;2023-07-31T06:41:08;101999.63;;;17.18;nan
71638;BME280;59485;43.542;-5.676;2023-07-31T06:43:36;102004.09;;;17.13;nan
71638;BME280;59485;43.542;-5.676;2023-07-31T06:46:05;102004.50;;;17.10;nan
71638;BME280;59485;43.542;-5.676;2023-07-31T06:48:32;102004.06;;;17.06;nan
71638;BME280;59485;43.542;-5.676;2023-07-31T06:50:58;102004.94;;;17.13;nan
71638;BME280;59485;43.542;-5.676;2023-07-31T06:53:23;102007.09;;;17.18;nan
71638;BME280;59485;43.542;-5.676;2023-07-31T06:55:49;102011.00;;;17.23;nan
71638;BME280;59485;43.542;-5.676;2023-07-31T06:58:17;102017.22;;;17.32;nan
71638;BME280;59485;43.542;-5.676;2023-07-31T07:00:42;102001.88;;;17.36;nan
71638;BME280;59485;43.542;-5.676;2023-07-31T07:03:08;102002.78;;;17.43;nan
71638;BME280;59485;43.542;-5.676;2023-07-31T07:05:33;102001.72;;;17.44;nan
71638;BME280;59485;43.542;-5.676;2023-07-31T07:07:59;102002.84;;;17.56;nan
71638;BME280;59485;43.542;-5.676;2023-07-31T07:10:24;101995.44;;;17.63;nan
71638;BME280;59485;43.542;-5.676;2023-07-31T07:12:50;101995.47;;;17.70;nan
71638;BME280;59485;43.542;-5.676;2023-07-31T07:15:15;101994.19;;;17.73;nan
71638;BME280;59485;43.542;-5.676;2023-07-31T07:17:41;101997.59;;;17.75;nan
71638;BME280;59485;43.542;-5.676;2023-07-31T07:20:07;102003.63;;;17.85;nan
71638;BME280;59485;43.542;-5.676;2023-07-31T07:22:33;102009.81;;;17.87;nan
71638;BME280;59485;43.542;-5.676;2023-07-31T07:24:59;102005.78;;;17.89;nan
71638;BME280;59485;43.542;-5.676;2023-07-31T07:27:24;101989.97;;;17.90;nan
71638;BME280;59485;43.542;-5.676;2023-07-31T07:29:50;101991.94;;;17.96;nan
71638;BME280;59485;43.542;-5.676;2023-07-31T07:32:17;101987.03;;;17.98;nan
71638;BME280;59485;43.542;-5.676;2023-07-31T07:34:43;101988.31;;;18.02;nan
71638;BME280;59485;43.542;-5.676;2023-07-31T07:37:09;101992.81;;;18.10;nan
71638;BME280;59485;43.542;-5.676;2023-07-31T07:39:34;101991.75;;;18.17;nan
71638;BME280;59485;43.542;-5.676;2023-07-31T07:42:00;101990.28;;;18.28;nan
71638;BME280;59485;43.542;-5.676;2023-07-31T07:44:25;101992.63;;;18.37;nan
71638;BME280;59485;43.542;-5.676;2023-07-31T07:46:52;101988.59;;;18.47;nan
71638;BME280;59485;43.542;-5.676;2023-07-31T07:49:17;101984.94;;;18.53;nan
71638;BME280;59485;43.542;-5.676;2023-07-31T07:51:43;101973.69;;;18.61;nan
71638;BME280;59485;43.542;-5.676;2023-07-31T07:54:08;101984.56;;;18.69;nan
71638;BME280;59485;43.542;-5.676;2023-07-31T07:56:34;101975.81;;;18.79;nan
71638;BME280;59485;43.542;-5.676;2023-07-31T07:59:01;101977.72;;;18.85;nan
71638;BME280;59485;43.542;-5.676;2023-07-31T08:01:27;101972.78;;;18.93;nan
71638;BME280;59485;43.542;-5.676;2023-07-31T08:03:52;101970.41;;;19.03;nan
71638;BME280;59485;43.542;-5.676;2023-07-31T08:06:18;101969.97;;;19.06;nan
71638;BME280;59485;43.542;-5.676;2023-07-31T08:08:44;101953.50;;;19.11;nan
71638;BME280;59485;43.542;-5.676;2023-07-31T08:11:09;101951.13;;;19.22;nan
71638;BME280;59485;43.542;-5.676;2023-07-31T08:13:35;101958.16;;;19.31;nan
71638;BME280;59485;43.542;-5.676;2023-07-31T08:16:03;101951.91;;;19.35;nan
71638;BME280;59485;43.542;-5.676;2023-07-31T08:18:28;101948.06;;;19.50;nan
71638;BME280;59485;43.542;-5.676;2023-07-31T08:20:54;101953.81;;;19.55;nan
71638;BME280;59485;43.542;-5.676;2023-07-31T08:23:19;101948.84;;;19.63;nan
71638;BME280;59485;43.542;-5.676;2023-07-31T08:25:45;101924.81;;;19.75;nan
71638;BME280;59485;43.542;-5.676;2023-07-31T08:28:11;101929.84;;;19.92;nan
71638;BME280;59485;43.542;-5.676;2023-07-31T08:30:37;101930.22;;;20.02;nan
71638;BME280;59485;43.542;-5.676;2023-07-31T08:33:02;101928.59;;;20.19;nan
71638;BME280;59485;43.542;-5.676;2023-07-31T08:35:28;101927.59;;;20.32;nan
71638;BME280;59485;43.542;-5.676;2023-07-31T08:37:53;101913.97;;;20.55;nan
71638;BME280;59485;43.542;-5.676;2023-07-31T08:40:19;101913.44;;;20.65;nan
71638;BME280;59485;43.542;-5.676;2023-07-31T08:42:46;101910.59;;;20.89;nan
71638;BME280;59485;43.542;-5.676;2023-07-31T08:45:18;101887.22;;;20.72;nan
71638;BME280;59485;43.542;-5.676;2023-07-31T08:47:48;101880.88;;;20.83;nan
71638;BME280;59485;43.542;-5.676;2023-07-31T08:50:17;101884.03;;;20.87;nan
71638;BME280;59485;43.542;-5.676;2023-07-31T08:52:43;101877.56;;;20.93;nan
71638;BME280;59485;43.542;-5.676;2023-07-31T08:55:09;101883.81;;;20.88;nan
71638;BME280;59485;43.542;-5.676;2023-07-31T08:57:37;101878.41;;;20.93;nan
71638;BME280;59485;43.542;-5.676;2023-07-31T09:00:07;101877.25;;;21.19;nan
71638;BME280;59485;43.542;-5.676;2023-07-31T09:05:23;101874.59;;;21.24;nan
71638;BME280;59485;43.542;-5.676;2023-07-31T09:07:49;101872.81;;;21.30;nan
71638;BME280;59485;43.542;-5.676;2023-07-31T09:10:15;101870.28;;;21.28;nan
71638;BME280;59485;43.542;-5.676;2023-07-31T09:12:41;101870.53;;;21.39;nan
71638;BME280;59485;43.542;-5.676;2023-07-31T09:15:07;101876.09;;;21.57;nan
71638;BME280;59485;43.542;-5.676;2023-07-31T09:17:35;101866.28;;;21.66;nan
71638;BME280;59485;43.542;-5.676;2023-07-31T09:22:41;101873.13;;;21.70;nan
71638;BME280;59485;43.542;-5.676;2023-07-31T09:25:33;101863.31;;;21.79;nan
71638;BME280;59485;43.542;-5.676;2023-07-31T09:28:02;101872.09;;;21.83;nan
71638;BME280;59485;43.542;-5.676;2023-07-31T09:30:28;101868.09;;;21.90;nan
71638;BME280;59485;43.542;-5.676;2023-07-31T09:33:06;101864.56;;;21.95;nan
71638;BME280;59485;43.542;-5.676;2023-07-31T09:35:33;101860.13;;;22.05;nan
71638;BME280;59485;43.542;-5.676;2023-07-31T09:38:03;101857.00;;;22.14;nan
71638;BME280;59485;43.542;-5.676;2023-07-31T09:40:31;101861.13;;;22.23;nan
71638;BME280;59485;43.542;-5.676;2023-07-31T09:42:59;101860.53;;;22.32;nan
71638;BME280;59485;43.542;-5.676;2023-07-31T09:45:25;101861.88;;;22.30;nan
71638;BME280;59485;43.542;-5.676;2023-07-31T09:47:51;101860.31;;;22.34;nan
71638;BME280;59485;43.542;-5.676;2023-07-31T09:50:21;101848.63;;;22.49;nan
71638;BME280;59485;43.542;-5.676;2023-07-31T09:52:47;101850.72;;;22.53;nan
71638;BME280;59485;43.542;-5.676;2023-07-31T09:55:12;101850.97;;;22.63;nan
71638;BME280;59485;43.542;-5.676;2023-07-31T09:57:43;101859.91;;;22.65;nan
71638;BME280;59485;43.542;-5.676;2023-07-31T10:00:10;101848.38;;;22.85;nan
71638;BME280;59485;43.542;-5.676;2023-07-31T10:02:37;101860.78;;;22.66;nan
71638;BME280;59485;43.542;-5.676;2023-07-31T10:05:04;101862.13;;;22.75;nan
71638;BME280;59485;43.542;-5.676;2023-07-31T10:07:31;101854.97;;;22.79;nan
71638;BME280;59485;43.542;-5.676;2023-07-31T10:10:00;101857.97;;;22.66;nan
71638;BME280;59485;43.542;-5.676;2023-07-31T10:12:27;101858.84;;;22.55;nan
71638;BME280;59485;43.542;-5.676;2023-07-31T10:14:56;101859.09;;;22.41;nan
71638;BME280;59485;43.542;-5.676;2023-07-31T10:17:25;101860.19;;;22.40;nan
71638;BME280;59485;43.542;-5.676;2023-07-31T10:19:51;101860.91;;;22.36;nan
71638;BME280;59485;43.542;-5.676;2023-07-31T10:22:20;101860.19;;;22.40;nan
71638;BME280;59485;43.542;-5.676;2023-07-31T10:24:46;101848.03;;;22.46;nan
71638;BME280;59485;43.542;-5.676;2023-07-31T10:27:13;101849.97;;;22.46;nan
71638;BME280;59485;43.542;-5.676;2023-07-31T10:29:40;101856.91;;;22.43;nan
71638;BME280;59485;43.542;-5.676;2023-07-31T10:32:10;101860.03;;;22.47;nan
71638;BME280;59485;43.542;-5.676;2023-07-31T10:34:39;101864.53;;;22.48;nan
71638;BME280;59485;43.542;-5.676;2023-07-31T10:40:03;101861.00;;;22.29;nan
71638;BME280;59485;43.542;-5.676;2023-07-31T10:42:37;101867.44;;;22.30;nan
71638;BME280;59485;43.542;-5.676;2023-07-31T10:45:08;101866.97;;;22.33;nan
71638;BME280;59485;43.542;-5.676;2023-07-31T10:47:58;101863.22;;;22.27;nan
71638;BME280;59485;43.542;-5.676;2023-07-31T10:50:29;101869.97;;;22.20;nan
71638;BME280;59485;43.542;-5.676;2023-07-31T10:52:57;101863.81;;;22.18;nan
71638;BME280;59485;43.542;-5.676;2023-07-31T10:55:40;101868.81;;;22.27;nan
71638;BME280;59485;43.542;-5.676;2023-07-31T10:58:13;101861.50;;;22.26;nan
71638;BME280;59485;43.542;-5.676;2023-07-31T11:00:41;101850.34;;;22.26;nan
71638;BME280;59485;43.542;-5.676;2023-07-31T11:03:14;101865.00;;;22.22;nan
71638;BME280;59485;43.542;-5.676;2023-07-31T11:05:48;101874.38;;;22.16;nan
71638;BME280;59485;43.542;-5.676;2023-07-31T11:08:18;101870.25;;;22.18;nan
71638;BME280;59485;43.542;-5.676;2023-07-31T11:11:04;101872.44;;;22.16;nan
71638;BME280;59485;43.542;-5.676;2023-07-31T11:13:33;101862.47;;;22.20;nan
71638;BME280;59485;43.542;-5.676;2023-07-31T11:16:00;101849.97;;;22.23;nan
71638;BME280;59485;43.542;-5.676;2023-07-31T11:18:26;101861.88;;;22.18;nan
71638;BME280;59485;43.542;-5.676;2023-07-31T11:20:52;101853.22;;;22.20;nan
71638;BME280;59485;43.542;-5.676;2023-07-31T11:23:19;101855.53;;;22.11;nan
71638;BME280;59485;43.542;-5.676;2023-07-31T11:25:45;101851.75;;;22.05;nan
71638;BME280;59485;43.542;-5.676;2023-07-31T11:28:12;101851.66;;;22.00;nan
71638;BME280;59485;43.542;-5.676;2023-07-31T11:30:40;101854.56;;;22.05;nan
71638;BME280;59485;43.542;-5.676;2023-07-31T11:33:07;101849.81;;;22.06;nan
71638;BME280;59485;43.542;-5.676;2023-07-31T11:35:36;101830.50;;;22.04;nan
71638;BME280;59485;43.542;-5.676;2023-07-31T11:38:02;101830.03;;;22.07;nan
71638;BME280;59485;43.542;-5.676;2023-07-31T11:40:28;101829.78;;;22.21;nan
71638;BME280;59485;43.542;-5.676;2023-07-31T11:42:58;101822.38;;;22.15;nan
71638;BME280;59485;43.542;-5.676;2023-07-31T11:45:26;101822.28;;;22.10;nan
71638;BME280;59485;43.542;-5.676;2023-07-31T11:47:55;101812.69;;;22.17;nan
71638;BME280;59485;43.542;-5.676;2023-07-31T11:50:21;101805.66;;;22.26;nan
71638;BME280;59485;43.542;-5.676;2023-07-31T11:52:49;101801.63;;;22.34;nan
71638;BME280;59485;43.542;-5.676;2023-07-31T11:55:17;101815.84;;;22.32;nan
71638;BME280;59485;43.542;-5.676;2023-07-31T11:57:43;101819.97;;;22.18;nan
71638;BME280;59485;43.542;-5.676;2023-07-31T12:00:11;101807.56;;;22.14;nan
71638;BME280;59485;43.542;-5.676;2023-07-31T12:02:38;101821.16;;;22.22;nan
71638;BME280;59485;43.542;-5.676;2023-07-31T12:05:12;101814.03;;;22.26;nan
71638;BME280;59485;43.542;-5.676;2023-07-31T12:07:51;101818.53;;;22.27;nan
71638;BME280;59485;43.542;-5.676;2023-07-31T12:10:38;101811.81;;;22.40;nan
71638;BME280;59485;43.542;-5.676;2023-07-31T12:13:12;101812.44;;;22.54;nan
71638;BME280;59485;43.542;-5.676;2023-07-31T12:15:45;101801.47;;;22.64;nan
71638;BME280;59485;43.542;-5.676;2023-07-31T12:18:13;101812.28;;;22.60;nan
71638;BME280;59485;43.542;-5.676;2023-07-31T12:20:47;101796.47;;;22.66;nan
71638;BME280;59485;43.542;-5.676;2023-07-31T12:23:19;101813.88;;;22.79;nan
71638;BME280;59485;43.542;-5.676;2023-07-31T12:28:48;101819.47;;;22.79;nan
71638;BME280;59485;43.542;-5.676;2023-07-31T12:31:17;101814.97;;;22.78;nan
71638;BME280;59485;43.542;-5.676;2023-07-31T12:33:43;101819.09;;;22.88;nan
71638;BME280;59485;43.542;-5.676;2023-07-31T12:36:14;101816.28;;;22.99;nan
71638;BME280;59485;43.542;-5.676;2023-07-31T12:38:41;101813.72;;;22.98;nan
71638;BME280;59485;43.542;-5.676;2023-07-31T12:41:07;101825.41;;;22.95;nan
71638;BME280;59485;43.542;-5.676;2023-07-31T12:43:36;101808.47;;;23.01;nan
71638;BME280;59485;43.542;-5.676;2023-07-31T12:46:03;101816.69;;;22.79;nan
71638;BME280;59485;43.542;-5.676;2023-07-31T12:48:28;101806.84;;;22.77;nan
71638;BME280;59485;43.542;-5.676;2023-07-31T12:50:54;101811.69;;;22.70;nan
71638;BME280;59485;43.542;-5.676;2023-07-31T12:53:20;101810.22;;;22.56;nan
71638;BME280;59485;43.542;-5.676;2023-07-31T12:55:45;101816.56;;;22.63;nan
71638;BME280;59485;43.542;-5.676;2023-07-31T12:58:11;101814.97;;;22.67;nan
71638;BME280;59485;43.542;-5.676;2023-07-31T13:00:39;101816.78;;;22.61;nan
71638;BME280;59485;43.542;-5.676;2023-07-31T13:03:04;101799.91;;;22.56;nan
71638;BME280;59485;43.542;-5.676;2023-07-31T13:05:30;101794.41;;;22.73;nan
71638;BME280;59485;43.542;-5.676;2023-07-31T13:07:58;101806.84;;;22.77;nan
71638;BME280;59485;43.542;-5.676;2023-07-31T13:10:24;101794.41;;;22.73;nan
71638;BME280;59485;43.542;-5.676;2023-07-31T13:12:52;101800.59;;;22.87;nan
71638;BME280;59485;43.542;-5.676;2023-07-31T13:15:17;101811.56;;;22.88;nan
71638;BME280;59485;43.542;-5.676;2023-07-31T13:17:43;101808.25;;;22.91;nan
71638;BME280;59485;43.542;-5.676;2023-07-31T13:20:09;101812.72;;;23.04;nan
71638;BME280;59485;43.542;-5.676;2023-07-31T13:22:35;101803.47;;;23.03;nan